Time;durP1;ratioP1;P1;durP2;ratioP2;P2;SDS_P1;SDS_P2;PMS_P1;PMS_P2;Temp;Humidity;BMP_temperature;BMP_pressure;BME280_temperature;BME280_humidity;BME280_pressure;Samples;Min_cycle;Max_cycle;Signal;HPM_P1;HPM_P2
2022/07/31 00:00:49;;;;;;;10.00;4.38;;;18.10;99.90;;;;;;4976633;28;20031;-75
2022/07/31 00:03:14;;;;;;;15.82;4.40;;;18.10;99.90;;;;;;4976072;28;20031;-75
2022/07/31 00:05:40;;;;;;;6.25;3.92;;;18.10;99.90;;;;;;4976073;28;20034;-75
2022/07/31 00:08:05;;;;;;;6.18;4.15;;;18.10;99.90;;;;;;4976386;28;20035;-73
2022/07/31 00:10:31;;;;;;;10.43;3.22;;;18.00;99.90;;;;;;4975970;28;20027;-77
2022/07/31 00:12:57;;;;;;;7.43;4.55;;;18.00;99.90;;;;;;4976155;28;20110;-75
2022/07/31 00:15:22;;;;;;;8.55;3.97;;;18.00;99.90;;;;;;4975805;28;20035;-75
2022/07/31 00:17:48;;;;;;;6.63;4.18;;;18.00;99.90;;;;;;4976868;28;20034;-75
2022/07/31 00:20:18;;;;;;;13.98;4.65;;;18.00;99.90;;;;;;4958495;28;20042;-75
2022/07/31 00:22:45;;;;;;;13.30;4.47;;;17.90;99.90;;;;;;4958476;28;20031;-74
2022/07/31 00:25:12;;;;;;;4.50;3.72;;;17.80;99.90;;;;;;4957762;28;20468;-75
2022/07/31 00:27:40;;;;;;;7.38;3.88;;;18.00;99.90;;;;;;4957845;28;20030;-74
2022/07/31 00:30:06;;;;;;;9.30;4.65;;;17.90;99.90;;;;;;4975598;28;20054;-74
2022/07/31 00:32:32;;;;;;;7.78;4.22;;;17.90;99.90;;;;;;4957599;28;20087;-77
2022/07/31 00:34:58;;;;;;;7.97;4.82;;;17.90;99.90;;;;;;4957851;28;20065;-76
2022/07/31 00:37:23;;;;;;;7.43;4.60;;;17.90;99.90;;;;;;4975749;28;20111;-74
2022/07/31 00:39:49;;;;;;;14.02;3.92;;;17.80;99.90;;;;;;4958343;28;20019;-75
2022/07/31 00:42:23;;;;;;;4.28;3.20;;;17.90;99.90;;;;;;4975440;28;20020;-75
2022/07/31 00:44:50;;;;;;;6.60;4.18;;;17.90;99.90;;;;;;4974685;28;20134;-74
2022/07/31 00:47:17;;;;;;;8.68;4.20;;;17.90;99.90;;;;;;4975279;28;20491;-74
2022/07/31 00:49:44;;;;;;;7.85;4.50;;;17.80;99.90;;;;;;4975378;28;20530;-74
2022/07/31 00:52:09;;;;;;;7.25;4.22;;;17.70;99.90;;;;;;4974592;28;20023;-74
2022/07/31 00:54:35;;;;;;;6.57;4.47;;;17.80;99.90;;;;;;4975270;28;20027;-75
2022/07/31 00:57:01;;;;;;;8.23;4.70;;;17.80;99.90;;;;;;4957884;28;20117;-74
2022/07/31 00:59:28;;;;;;;7.95;5.07;;;17.70;99.90;;;;;;4974169;28;20027;-75
2022/07/31 01:01:54;;;;;;;6.80;4.63;;;17.80;99.90;;;;;;4975203;28;20102;-74
2022/07/31 01:04:20;;;;;;;8.93;3.67;;;17.70;99.90;;;;;;4974319;28;20059;-74
2022/07/31 01:06:46;;;;;;;10.23;4.25;;;17.80;99.90;;;;;;4974392;28;20042;-75
2022/07/31 01:09:13;;;;;;;10.60;4.30;;;17.70;99.90;;;;;;4974779;28;20031;-75
2022/07/31 01:11:57;;;;;;;6.22;4.18;;;17.80;99.90;;;;;;4956879;28;20027;-76
2022/07/31 01:14:28;;;;;;;6.18;3.63;;;17.70;99.90;;;;;;4975029;28;20039;-75
2022/07/31 01:16:55;;;;;;;12.60;3.35;;;17.70;99.90;;;;;;4974959;28;20134;-75
2022/07/31 01:19:40;;;;;;;5.03;3.50;;;17.80;99.90;;;;;;4974789;28;20027;-74
2022/07/31 01:22:18;;;;;;;11.05;4.13;;;17.80;99.90;;;;;;4957089;28;20031;-75
2022/07/31 01:24:51;;;;;;;7.05;3.50;;;17.80;99.90;;;;;;4974586;28;20043;-76
2022/07/31 01:27:51;;;;;;;6.10;3.57;;;17.90;99.90;;;;;;4975343;28;20035;-76
2022/07/31 01:30:18;;;;;;;6.72;4.05;;;17.90;99.90;;;;;;4974690;28;20377;-74
2022/07/31 01:32:48;;;;;;;9.88;3.83;;;17.90;99.90;;;;;;4974265;28;20023;-75
2022/07/31 01:35:26;;;;;;;8.68;3.75;;;17.90;99.90;;;;;;4974070;28;20054;-75
2022/07/31 01:38:07;;;;;;;5.05;3.85;;;17.90;99.90;;;;;;4974763;28;20031;-75
2022/07/31 01:40:40;;;;;;;12.15;4.30;;;17.90;99.90;;;;;;4957468;28;20085;-74
2022/07/31 01:43:10;;;;;;;8.10;5.15;;;17.90;99.90;;;;;;4957372;28;20038;-76
2022/07/31 01:45:40;;;;;;;17.88;5.07;;;17.90;99.90;;;;;;4957611;28;20085;-76
2022/07/31 01:48:09;;;;;;;7.13;5.03;;;17.90;99.90;;;;;;4974355;28;20471;-75
2022/07/31 01:50:37;;;;;;;10.80;5.78;;;17.90;99.90;;;;;;4974273;28;20028;-75
2022/07/31 01:53:05;;;;;;;9.35;5.47;;;17.90;99.90;;;;;;4973831;28;20024;-76
2022/07/31 01:55:33;;;;;;;5.65;3.88;;;17.90;99.90;;;;;;4973568;28;20031;-75
2022/07/31 01:58:00;;;;;;;10.60;5.55;;;17.90;99.90;;;;;;4974192;28;20030;-76
2022/07/31 02:00:25;;;;;;;10.30;5.15;;;17.90;99.90;;;;;;4974184;28;20027;-75
2022/07/31 02:02:52;;;;;;;9.55;4.50;;;17.80;99.90;;;;;;4974561;28;20027;-74
2022/07/31 02:05:18;;;;;;;8.23;4.75;;;17.80;99.90;;;;;;4974391;28;20069;-75
2022/07/31 02:07:45;;;;;;;8.25;4.25;;;17.80;99.90;;;;;;4956525;28;20045;-75
2022/07/31 02:10:13;;;;;;;12.57;4.18;;;17.80;99.90;;;;;;4956190;28;20038;-75
2022/07/31 02:12:40;;;;;;;21.65;4.95;;;17.80;99.90;;;;;;4973879;28;20039;-75
2022/07/31 02:15:10;;;;;;;10.75;4.10;;;17.80;99.90;;;;;;4973965;28;20015;-76
2022/07/31 02:17:36;;;;;;;7.57;4.55;;;17.80;99.90;;;;;;4973585;28;20023;-76
2022/07/31 02:20:05;;;;;;;8.32;4.18;;;17.90;99.90;;;;;;4956254;28;20046;-77
2022/07/31 02:22:32;;;;;;;10.82;4.90;;;17.70;99.90;;;;;;4973640;28;20467;-75
2022/07/31 02:24:58;;;;;;;21.58;5.22;;;17.80;99.90;;;;;;4973816;28;20059;-74
2022/07/31 02:27:25;;;;;;;7.65;4.25;;;17.90;99.90;;;;;;4956065;28;20019;-75
2022/07/31 02:29:52;;;;;;;12.27;4.95;;;17.80;99.90;;;;;;4973097;28;20027;-75
2022/07/31 02:32:18;;;;;;;17.23;4.93;;;17.90;99.90;;;;;;4974433;28;20085;-75
2022/07/31 02:34:45;;;;;;;10.77;5.57;;;17.90;99.90;;;;;;4973032;28;20051;-75
2022/07/31 02:37:14;;;;;;;6.25;3.90;;;17.80;99.90;;;;;;4955986;28;20066;-75
2022/07/31 02:39:41;;;;;;;6.05;4.53;;;17.80;99.90;;;;;;4955983;28;20027;-75
2022/07/31 02:42:07;;;;;;;8.07;4.43;;;17.80;99.90;;;;;;4973459;28;20062;-75
2022/07/31 02:44:33;;;;;;;11.07;4.80;;;17.80;99.90;;;;;;4973054;28;20039;-76
2022/07/31 02:47:01;;;;;;;7.80;4.55;;;17.80;99.90;;;;;;4973254;28;20055;-75
2022/07/31 02:49:28;;;;;;;9.55;4.43;;;17.70;99.90;;;;;;4973241;28;20023;-76
2022/07/31 02:51:55;;;;;;;11.48;4.38;;;17.80;99.90;;;;;;4972733;28;20842;-75
2022/07/31 02:54:23;;;;;;;14.05;4.38;;;17.70;99.90;;;;;;4955653;28;20078;-75
2022/07/31 02:56:49;;;;;;;8.00;4.45;;;17.80;99.90;;;;;;4973210;28;20042;-75
2022/07/31 02:59:15;;;;;;;6.88;4.55;;;17.80;99.90;;;;;;4955226;28;20023;-75
2022/07/31 03:01:41;;;;;;;9.75;4.80;;;17.80;99.90;;;;;;4973306;28;20078;-75
2022/07/31 03:04:07;;;;;;;8.18;4.88;;;17.70;99.90;;;;;;4955700;28;20043;-75
2022/07/31 03:06:32;;;;;;;8.77;5.32;;;17.80;99.90;;;;;;4954876;28;20020;-76
2022/07/31 03:08:58;;;;;;;7.82;4.93;;;17.80;99.90;;;;;;4973447;28;20597;-75
2022/07/31 03:11:24;;;;;;;15.48;5.18;;;17.80;99.90;;;;;;4973598;28;20035;-75
2022/07/31 03:13:52;;;;;;;8.15;4.82;;;17.80;99.90;;;;;;4972785;28;20035;-74
2022/07/31 03:16:19;;;;;;;6.60;4.35;;;17.80;99.90;;;;;;4955518;28;20043;-74
2022/07/31 03:18:46;;;;;;;8.43;4.68;;;17.80;99.90;;;;;;4972725;28;20034;-75
2022/07/31 03:21:12;;;;;;;11.32;4.93;;;17.70;99.90;;;;;;4973616;28;20033;-74
2022/07/31 03:23:38;;;;;;;9.52;4.90;;;17.70;99.90;;;;;;4959526;28;20042;-75
2022/07/31 03:26:05;;;;;;;8.20;4.97;;;17.70;99.90;;;;;;4959276;28;20031;-76
2022/07/31 03:28:32;;;;;;;6.13;3.95;;;17.80;99.90;;;;;;4976789;28;20027;-75
2022/07/31 03:30:57;;;;;;;7.53;4.10;;;17.70;99.90;;;;;;4976771;28;20114;-76
2022/07/31 03:33:23;;;;;;;8.20;4.18;;;17.70;99.90;;;;;;4976328;28;20145;-74
2022/07/31 03:35:49;;;;;;;18.15;6.00;;;17.80;99.90;;;;;;4976812;28;20034;-75
2022/07/31 03:38:15;;;;;;;9.95;4.53;;;17.80;99.90;;;;;;4976458;28;20031;-76
2022/07/31 03:40:40;;;;;;;8.15;5.03;;;17.70;99.90;;;;;;4958681;28;20031;-74
2022/07/31 03:43:06;;;;;;;10.40;3.85;;;17.80;99.90;;;;;;4976560;28;20034;-75
2022/07/31 03:45:35;;;;;;;9.98;4.78;;;17.80;99.90;;;;;;4976744;28;20043;-74
2022/07/31 03:48:01;;;;;;;9.43;4.53;;;17.70;99.90;;;;;;4976403;28;20030;-75
2022/07/31 03:50:27;;;;;;;11.98;4.32;;;17.70;99.90;;;;;;4976364;28;20034;-75
2022/07/31 03:52:54;;;;;;;10.02;4.38;;;17.70;99.90;;;;;;4976353;28;20030;-76
2022/07/31 03:55:20;;;;;;;7.68;4.07;;;17.80;99.90;;;;;;4976111;28;20115;-75
2022/07/31 03:57:46;;;;;;;8.18;4.22;;;17.70;99.90;;;;;;4976694;28;20376;-75
2022/07/31 04:00:12;;;;;;;11.98;4.28;;;17.70;99.90;;;;;;4958991;28;20034;-74
2022/07/31 04:02:38;;;;;;;7.15;3.35;;;17.70;99.90;;;;;;4975754;28;20421;-75
2022/07/31 04:05:04;;;;;;;10.40;5.20;;;17.70;99.90;;;;;;4975746;28;20107;-74
2022/07/31 04:07:30;;;;;;;7.85;4.07;;;17.70;99.90;;;;;;4976141;28;20022;-75
2022/07/31 04:09:55;;;;;;;6.25;3.72;;;17.70;99.90;;;;;;4976398;28;20492;-75
2022/07/31 04:12:21;;;;;;;5.10;3.80;;;17.70;99.90;;;;;;4958435;28;20090;-74
2022/07/31 04:14:47;;;;;;;7.20;3.97;;;17.80;99.90;;;;;;4975757;28;20043;-75
2022/07/31 04:17:13;;;;;;;5.13;3.80;;;17.80;99.90;;;;;;4975912;28;20022;-75
2022/07/31 04:19:38;;;;;;;9.48;4.90;;;17.70;99.90;;;;;;4975943;28;20023;-75
2022/07/31 04:22:04;;;;;;;5.75;3.17;;;17.70;99.90;;;;;;4975782;28;20027;-75
2022/07/31 04:24:30;;;;;;;8.15;4.50;;;17.80;99.90;;;;;;4975511;28;20089;-76
2022/07/31 04:26:57;;;;;;;4.10;3.33;;;17.80;99.90;;;;;;4976324;28;20166;-76
2022/07/31 04:29:23;;;;;;;8.52;4.00;;;17.80;99.90;;;;;;4975803;28;20027;-74
2022/07/31 04:31:49;;;;;;;10.07;4.25;;;17.80;99.90;;;;;;4975093;28;20027;-75
2022/07/31 04:34:15;;;;;;;6.95;3.53;;;17.80;99.90;;;;;;4974347;28;20047;-74
2022/07/31 04:36:40;;;;;;;5.45;3.25;;;17.70;99.90;;;;;;4975777;28;20030;-75
2022/07/31 04:39:06;;;;;;;7.55;3.40;;;17.80;99.90;;;;;;4975287;28;20039;-76
2022/07/31 04:41:32;;;;;;;6.10;3.53;;;17.80;99.90;;;;;;4976297;28;20706;-74
2022/07/31 04:43:58;;;;;;;6.43;3.33;;;17.80;99.90;;;;;;4976174;28;20043;-74
2022/07/31 04:46:25;;;;;;;5.43;3.00;;;17.80;99.90;;;;;;4976217;28;20039;-74
2022/07/31 04:48:51;;;;;;;5.40;3.03;;;17.90;99.90;;;;;;4975811;28;20175;-74
2022/07/31 04:51:17;;;;;;;12.55;3.72;;;17.90;99.90;;;;;;4975051;28;20479;-74
2022/07/31 04:53:44;;;;;;;6.13;3.70;;;17.90;99.90;;;;;;4974846;28;20074;-74
2022/07/31 04:58:54;;;;;;;5.80;4.13;;;17.90;99.90;;;;;;4975353;28;20082;-74
2022/07/31 05:01:19;;;;;;;6.90;4.40;;;18.00;99.90;;;;;;4975051;28;20039;-77
2022/07/31 05:03:45;;;;;;;8.43;5.07;;;18.00;99.90;;;;;;4975055;28;20070;-75
2022/07/31 05:06:12;;;;;;;7.05;4.22;;;17.90;99.90;;;;;;4975177;28;20035;-74
2022/07/31 05:08:38;;;;;;;8.90;4.72;;;18.00;99.90;;;;;;4975367;28;20055;-74
2022/07/31 05:11:24;;;;;;;7.88;4.78;;;18.00;99.90;;;;;;4957077;28;20039;-75
2022/07/31 05:13:57;;;;;;;13.90;5.43;;;18.00;99.90;;;;;;4976249;28;20042;-75
2022/07/31 05:16:23;;;;;;;9.55;5.28;;;18.00;99.90;;;;;;4957885;28;20034;-76
2022/07/31 05:18:50;;;;;;;9.10;5.20;;;17.90;99.90;;;;;;4975009;28;20030;-76
2022/07/31 05:21:16;;;;;;;10.80;5.75;;;18.00;99.90;;;;;;4974191;28;20038;-77
2022/07/31 05:23:43;;;;;;;7.88;5.15;;;18.00;99.90;;;;;;4975089;28;20035;-75
2022/07/31 05:26:09;;;;;;;11.25;5.53;;;17.90;99.90;;;;;;4974437;28;20037;-76
2022/07/31 05:28:39;;;;;;;9.18;5.05;;;17.90;99.90;;;;;;4976578;28;20041;-75
2022/07/31 05:31:06;;;;;;;12.95;5.55;;;17.90;99.90;;;;;;4955915;28;20030;-75
2022/07/31 05:33:32;;;;;;;8.23;4.88;;;17.90;99.90;;;;;;4973859;28;20016;-75
2022/07/31 05:35:59;;;;;;;12.30;4.88;;;17.90;99.90;;;;;;4974237;28;20062;-75
2022/07/31 05:38:25;;;;;;;10.15;4.68;;;17.90;99.90;;;;;;4974793;28;20026;-74
2022/07/31 05:40:52;;;;;;;15.23;5.70;;;18.00;99.90;;;;;;4974366;28;20037;-76
2022/07/31 05:43:17;;;;;;;10.93;5.10;;;18.00;99.90;;;;;;4958290;28;20070;-74
2022/07/31 05:45:45;;;;;;;14.88;4.40;;;18.10;99.90;;;;;;4956684;28;20019;-75
2022/07/31 05:48:12;;;;;;;15.85;5.28;;;18.20;99.90;;;;;;4975577;28;20468;-74
2022/07/31 05:50:37;;;;;;;10.88;5.15;;;18.20;99.90;;;;;;4958892;28;20047;-74
2022/07/31 05:53:03;;;;;;;7.68;4.72;;;18.30;99.90;;;;;;4956513;28;20038;-76
2022/07/31 05:55:28;;;;;;;8.00;5.32;;;18.30;99.90;;;;;;4973874;28;20027;-75
2022/07/31 05:57:54;;;;;;;8.75;5.10;;;18.30;99.90;;;;;;4957382;28;20037;-76
2022/07/31 06:00:20;;;;;;;7.43;4.20;;;18.40;99.90;;;;;;4975189;28;20027;-76
2022/07/31 06:02:46;;;;;;;6.43;4.53;;;18.40;99.90;;;;;;4957344;28;20031;-75
2022/07/31 06:05:11;;;;;;;7.55;4.57;;;18.40;99.90;;;;;;4956041;28;20058;-79
2022/07/31 06:07:37;;;;;;;5.90;3.67;;;18.60;99.90;;;;;;4974285;28;20023;-76
2022/07/31 06:10:04;;;;;;;10.43;5.50;;;18.50;99.90;;;;;;4974792;28;20034;-76
2022/07/31 06:12:29;;;;;;;5.60;3.50;;;18.60;99.90;;;;;;4975322;28;20026;-75
2022/07/31 06:14:55;;;;;;;8.85;3.67;;;18.60;99.90;;;;;;4957170;28;20065;-76
2022/07/31 06:17:20;;;;;;;9.75;4.95;;;18.70;99.90;;;;;;4975363;28;20102;-79
2022/07/31 06:19:46;;;;;;;8.10;4.35;;;18.70;99.90;;;;;;4955877;28;20094;-74
2022/07/31 06:22:11;;;;;;;5.97;3.58;;;18.70;99.90;;;;;;4974416;28;20034;-77
2022/07/31 06:24:37;;;;;;;8.73;4.47;;;18.70;99.90;;;;;;4973253;28;20077;-78
2022/07/31 06:27:03;;;;;;;11.68;4.22;;;18.90;99.90;;;;;;4974163;28;20049;-77
2022/07/31 06:29:31;;;;;;;9.38;4.35;;;18.80;99.90;;;;;;4974089;28;20042;-77
2022/07/31 06:31:56;;;;;;;7.60;4.35;;;18.80;99.90;;;;;;4957495;28;20031;-77
2022/07/31 06:34:23;;;;;;;10.05;4.40;;;18.80;99.90;;;;;;4973525;28;20039;-77
2022/07/31 06:36:49;;;;;;;5.63;3.72;;;18.90;99.90;;;;;;4973192;28;20050;-76
2022/07/31 06:39:16;;;;;;;6.00;3.40;;;19.00;99.90;;;;;;4973876;28;20030;-77
2022/07/31 06:41:48;;;;;;;4.03;2.88;;;19.00;99.90;;;;;;4956263;28;20086;-76
2022/07/31 06:44:18;;;;;;;6.13;2.97;;;19.00;99.90;;;;;;4956530;28;20515;-77
2022/07/31 06:46:48;;;;;;;5.55;2.90;;;19.00;99.90;;;;;;4956348;28;20062;-77
2022/07/31 06:49:14;;;;;;;4.30;3.05;;;19.00;99.90;;;;;;4957569;28;20035;-77
2022/07/31 06:51:40;;;;;;;5.75;3.22;;;19.10;99.90;;;;;;4973304;28;20027;-76
2022/07/31 06:54:07;;;;;;;5.20;3.25;;;19.10;99.90;;;;;;4972937;28;20494;-76
2022/07/31 06:56:34;;;;;;;4.80;2.53;;;19.20;99.90;;;;;;4972233;28;20045;-77
2022/07/31 06:59:00;;;;;;;3.50;2.80;;;19.20;99.90;;;;;;4974412;28;20496;-77
2022/07/31 07:01:26;;;;;;;3.45;2.35;;;19.30;99.90;;;;;;4973217;28;20027;-76
2022/07/31 07:03:52;;;;;;;6.68;3.13;;;19.40;99.90;;;;;;4973879;28;20051;-75
2022/07/31 07:06:18;;;;;;;9.25;3.28;;;19.40;99.90;;;;;;4957398;28;20039;-75
2022/07/31 07:08:43;;;;;;;8.60;3.15;;;19.50;99.90;;;;;;4956606;28;20050;-76
2022/07/31 07:11:09;;;;;;;7.22;2.70;;;19.60;99.90;;;;;;4973977;28;20027;-76
2022/07/31 07:13:34;;;;;;;5.43;2.85;;;19.60;99.90;;;;;;4974855;28;20031;-76
2022/07/31 07:16:00;;;;;;;4.25;2.28;;;19.70;99.90;;;;;;4974147;28;21487;-75
2022/07/31 07:18:26;;;;;;;2.95;2.00;;;19.80;99.90;;;;;;4973278;28;20038;-78
2022/07/31 07:20:51;;;;;;;5.78;2.70;;;19.90;99.90;;;;;;4956245;28;20114;-76
2022/07/31 07:23:19;;;;;;;3.53;2.40;;;19.90;99.90;;;;;;4973109;28;20173;-76
2022/07/31 07:25:45;;;;;;;10.45;3.20;;;19.90;99.90;;;;;;4955868;28;20037;-75
2022/07/31 07:28:10;;;;;;;2.55;2.05;;;20.00;99.90;;;;;;4972778;28;20102;-76
2022/07/31 07:30:36;;;;;;;6.07;2.70;;;20.00;99.90;;;;;;4972688;28;20434;-76
2022/07/31 07:33:03;;;;;;;5.03;2.38;;;20.00;99.90;;;;;;4973152;28;20103;-77
2022/07/31 07:35:29;;;;;;;3.65;2.22;;;20.10;99.90;;;;;;4973059;28;20134;-76
2022/07/31 07:37:55;;;;;;;11.52;3.08;;;20.10;99.90;;;;;;4973826;28;20126;-74
2022/07/31 07:40:20;;;;;;;5.00;3.00;;;20.20;99.90;;;;;;4954500;28;21890;-76
2022/07/31 07:42:46;;;;;;;6.63;2.80;;;20.20;99.90;;;;;;4973141;28;20063;-77
2022/07/31 07:45:12;;;;;;;3.28;2.08;;;20.20;99.90;;;;;;4955188;28;20047;-75
2022/07/31 07:47:38;;;;;;;3.35;2.13;;;20.20;99.90;;;;;;4971216;28;20118;-73
2022/07/31 07:50:06;;;;;;;5.40;2.20;;;20.30;99.90;;;;;;4971642;28;20019;-77
2022/07/31 07:52:36;;;;;;;4.75;2.10;;;20.30;99.90;;;;;;4973958;28;20038;-75
2022/07/31 07:55:11;;;;;;;4.32;2.35;;;20.30;99.90;;;;;;4956328;28;20023;-77
2022/07/31 07:57:37;;;;;;;4.13;2.30;;;20.40;99.90;;;;;;4971007;28;20031;-76
2022/07/31 08:00:08;;;;;;;9.35;3.00;;;20.30;99.90;;;;;;4953425;28;20045;-76
2022/07/31 08:02:34;;;;;;;2.88;2.13;;;20.30;99.90;;;;;;4955109;28;20031;-76
2022/07/31 08:05:00;;;;;;;5.95;2.17;;;20.40;99.90;;;;;;4954341;28;20377;-76
2022/07/31 08:07:30;;;;;;;5.40;2.20;;;20.40;99.90;;;;;;4972824;28;20038;-76
2022/07/31 08:09:57;;;;;;;3.20;2.03;;;20.30;99.90;;;;;;4976637;28;20031;-76
2022/07/31 08:12:23;;;;;;;2.15;1.23;;;20.30;99.90;;;;;;4957884;28;20024;-77
2022/07/31 08:14:49;;;;;;;3.50;2.30;;;20.30;99.90;;;;;;4977125;28;20039;-76
2022/07/31 08:17:14;;;;;;;2.72;1.98;;;20.40;99.90;;;;;;4972986;28;20169;-76
2022/07/31 08:19:40;;;;;;;10.70;2.13;;;20.30;99.90;;;;;;4976216;28;20046;-77
2022/07/31 08:22:07;;;;;;;2.38;1.80;;;20.30;99.90;;;;;;4973213;28;20114;-76
2022/07/31 08:24:32;;;;;;;3.38;2.05;;;20.20;99.90;;;;;;4977463;28;20045;-75
2022/07/31 08:29:44;;;;;;;3.50;1.90;;;20.40;99.90;;;;;;4975904;28;20042;-76
2022/07/31 08:32:13;;;;;;;2.65;1.75;;;20.60;99.90;;;;;;4976406;28;20031;-76
2022/07/31 08:34:38;;;;;;;4.32;2.13;;;20.70;99.90;;;;;;4957952;28;20053;-77
2022/07/31 08:37:05;;;;;;;6.18;1.75;;;20.80;99.90;;;;;;4957748;28;20034;-77
2022/07/31 08:39:34;;;;;;;5.18;2.45;;;21.00;99.90;;;;;;4977387;28;20035;-77
2022/07/31 08:42:04;;;;;;;4.00;2.22;;;21.10;99.90;;;;;;4958960;28;20033;-77
2022/07/31 08:44:30;;;;;;;2.72;2.40;;;21.30;99.90;;;;;;4959881;28;20039;-77
2022/07/31 08:46:57;;;;;;;9.68;3.15;;;21.40;99.90;;;;;;4959099;28;20736;-74
2022/07/31 08:49:26;;;;;;;3.28;2.00;;;21.40;99.90;;;;;;4958001;28;20073;-76
2022/07/31 08:51:54;;;;;;;3.90;3.00;;;21.40;99.90;;;;;;4976249;28;20043;-77
2022/07/31 08:54:21;;;;;;;4.53;2.35;;;21.50;99.90;;;;;;4957331;28;20031;-73
2022/07/31 08:56:51;;;;;;;3.45;2.47;;;21.50;99.90;;;;;;4975729;28;20963;-76
2022/07/31 08:59:18;;;;;;;3.50;2.10;;;21.50;99.90;;;;;;4976438;28;20035;-75
2022/07/31 09:01:44;;;;;;;1.95;1.55;;;21.60;99.90;;;;;;4975265;28;20015;-75
2022/07/31 09:04:10;;;;;;;5.55;2.65;;;21.80;99.90;;;;;;4974796;28;20038;-75
2022/07/31 09:06:36;;;;;;;7.20;2.25;;;21.90;99.90;;;;;;4958698;28;20033;-75
2022/07/31 09:09:03;;;;;;;4.30;2.28;;;22.00;99.90;;;;;;4975893;28;20106;-76
2022/07/31 09:11:29;;;;;;;7.22;2.45;;;22.10;99.90;;;;;;4976665;28;20041;-76
2022/07/31 09:13:57;;;;;;;2.80;1.88;;;22.30;99.90;;;;;;4975183;28;20066;-76
2022/07/31 09:16:23;;;;;;;6.88;2.55;;;22.30;99.90;;;;;;4976070;28;20074;-73
2022/07/31 09:19:03;;;;;;;2.88;2.28;;;22.40;99.90;;;;;;4974062;28;20042;-71
2022/07/31 09:21:42;;;;;;;3.15;2.15;;;22.50;99.90;;;;;;4955781;28;20050;-75
2022/07/31 09:24:09;;;;;;;7.72;2.17;;;22.70;99.90;;;;;;4956401;28;20050;-75
2022/07/31 09:26:36;;;;;;;3.08;2.40;;;22.70;99.90;;;;;;4974589;28;20125;-74
2022/07/31 09:29:07;;;;;;;3.40;2.00;;;22.80;99.90;;;;;;4956641;28;20018;-74
2022/07/31 09:31:37;;;;;;;6.55;1.90;;;22.70;99.90;;;;;;4975159;28;20479;-74
2022/07/31 09:34:04;;;;;;;2.15;1.55;;;22.70;99.90;;;;;;4976006;28;20055;-75
2022/07/31 09:36:30;;;;;;;5.95;2.25;;;22.80;99.90;;;;;;4975262;28;20030;-71
2022/07/31 09:38:58;;;;;;;3.88;2.50;;;22.80;99.90;;;;;;4975577;28;20054;-74
2022/07/31 09:41:25;;;;;;;3.88;2.25;;;22.80;99.90;;;;;;4973677;28;20043;-72
2022/07/31 09:43:54;;;;;;;3.20;2.05;;;23.00;99.90;;;;;;4974574;28;20109;-73
2022/07/31 09:46:20;;;;;;;7.35;1.65;;;23.00;99.90;;;;;;4974435;28;20103;-76
2022/07/31 09:48:51;;;;;;;3.47;1.67;;;23.10;99.90;;;;;;4975158;28;20543;-74
2022/07/31 09:51:17;;;;;;;2.15;1.50;;;23.20;99.90;;;;;;4973075;28;20042;-74
2022/07/31 09:53:49;;;;;;;2.22;1.35;;;23.30;99.90;;;;;;4974039;28;20037;-73
2022/07/31 09:56:14;;;;;;;3.15;1.48;;;23.30;99.90;;;;;;4973882;28;20032;-72
2022/07/31 09:58:41;;;;;;;3.15;1.73;;;23.30;99.90;;;;;;4972436;28;20062;-74
2022/07/31 10:01:11;;;;;;;2.40;1.45;;;23.30;99.90;;;;;;4974839;28;20090;-75
2022/07/31 10:03:38;;;;;;;2.22;1.50;;;23.30;99.90;;;;;;4955375;28;20046;-72
2022/07/31 10:06:12;;;;;;;1.88;1.40;;;23.30;99.90;;;;;;4973834;28;20770;-75
2022/07/31 10:08:40;;;;;;;1.75;1.27;;;23.40;99.90;;;;;;4974890;28;20078;-76
2022/07/31 10:11:06;;;;;;;2.70;1.60;;;23.40;99.90;;;;;;4974343;28;20030;-74
2022/07/31 10:13:42;;;;;;;2.03;1.38;;;23.40;99.90;;;;;;4973719;28;20034;-74
2022/07/31 10:16:08;;;;;;;1.88;1.30;;;23.40;99.90;;;;;;4973153;28;20031;-73
2022/07/31 10:18:38;;;;;;;2.55;1.90;;;23.40;99.90;;;;;;4973252;28;20054;-73
2022/07/31 10:21:06;;;;;;;2.50;1.50;;;23.40;99.90;;;;;;4958436;28;20127;-75
2022/07/31 10:23:39;;;;;;;2.55;1.50;;;23.40;99.90;;;;;;4973078;28;20099;-73
2022/07/31 10:26:05;;;;;;;3.55;1.77;;;23.40;99.90;;;;;;4972268;28;20038;-77
2022/07/31 10:28:35;;;;;;;11.85;1.63;;;23.50;99.90;;;;;;4957294;28;20031;-74
2022/07/31 10:31:01;;;;;;;1.85;1.38;;;23.60;99.90;;;;;;4972360;28;20029;-74
2022/07/31 10:33:27;;;;;;;4.65;1.83;;;23.60;99.90;;;;;;4973568;28;20122;-75
2022/07/31 10:36:21;;;;;;;2.58;1.45;;;23.70;99.90;;;;;;4973742;28;20046;-72
2022/07/31 10:39:00;;;;;;;1.40;0.85;;;23.70;99.90;;;;;;4974476;28;20066;-76
2022/07/31 10:41:44;;;;;;;2.78;1.58;;;23.80;99.90;;;;;;4956864;28;20031;-72
2022/07/31 10:44:21;;;;;;;1.25;0.98;;;23.90;99.90;;;;;;4974544;28;20047;-71
2022/07/31 10:46:47;;;;;;;3.78;2.13;;;24.00;99.90;;;;;;4973898;28;20038;-73
2022/07/31 10:49:13;;;;;;;7.80;2.03;;;24.00;99.90;;;;;;4973700;28;20042;-72
2022/07/31 10:51:49;;;;;;;3.50;1.88;;;24.00;99.90;;;;;;4973108;28;20113;-76
2022/07/31 10:54:15;;;;;;;2.85;1.70;;;24.10;99.90;;;;;;4973475;28;20022;-73
2022/07/31 10:56:42;;;;;;;3.90;1.50;;;24.20;99.90;;;;;;4973517;28;20054;-74
2022/07/31 10:59:09;;;;;;;2.92;1.73;;;24.30;99.90;;;;;;4974214;28;20031;-76
2022/07/31 11:01:48;;;;;;;3.08;1.40;;;24.40;99.90;;;;;;4974428;28;20037;-74
2022/07/31 11:04:30;;;;;;;2.00;1.33;;;24.70;99.90;;;;;;4973328;28;20038;-72
2022/07/31 11:06:56;;;;;;;4.45;1.58;;;24.80;99.90;;;;;;4972907;28;20039;-73
2022/07/31 11:09:24;;;;;;;2.80;1.55;;;25.00;99.90;;;;;;4973434;28;20074;-72
2022/07/31 11:11:50;;;;;;;5.03;1.98;;;25.00;99.90;;;;;;4973211;28;20495;-73
2022/07/31 11:14:16;;;;;;;2.33;1.55;;;25.10;99.90;;;;;;4973561;28;20022;-70
2022/07/31 11:16:54;;;;;;;1.92;1.38;;;25.10;99.90;;;;;;4973424;28;20028;-75
2022/07/31 11:19:20;;;;;;;2.15;1.33;;;25.20;99.90;;;;;;4973967;28;20027;-71
2022/07/31 11:21:46;;;;;;;1.85;1.10;;;25.20;99.90;;;;;;4972458;28;20034;-74
2022/07/31 11:24:22;;;;;;;4.63;1.52;;;25.20;99.90;;;;;;4972724;28;20039;-72
2022/07/31 11:26:51;;;;;;;2.53;1.05;;;25.10;99.90;;;;;;4972845;28;20031;-74
2022/07/31 11:29:31;;;;;;;2.13;1.30;;;25.10;99.90;;;;;;4973121;28;20042;-71
2022/07/31 11:32:15;;;;;;;2.65;1.25;;;25.00;99.90;;;;;;4974229;28;20033;-72
2022/07/31 11:34:52;;;;;;;1.15;1.00;;;24.90;99.90;;;;;;4972654;28;20053;-73
2022/07/31 11:37:27;;;;;;;19.75;1.85;;;24.80;99.90;;;;;;4973378;28;20054;-74
2022/07/31 11:39:54;;;;;;;15.27;1.52;;;24.80;99.90;;;;;;4973933;28;20480;-74
2022/07/31 11:42:21;;;;;;;2.28;1.40;;;24.80;99.90;;;;;;4974375;28;20023;-73
2022/07/31 11:44:47;;;;;;;4.40;1.25;;;24.80;99.90;;;;;;4976578;28;20042;-76
2022/07/31 11:47:13;;;;;;;3.55;1.70;;;24.80;99.90;;;;;;4976463;28;20032;-72
2022/07/31 11:49:39;;;;;;;1.20;1.02;;;24.80;99.90;;;;;;4976061;28;20074;-73
2022/07/31 11:52:12;;;;;;;5.55;1.33;;;24.90;99.90;;;;;;4976560;28;20026;-73
2022/07/31 11:54:38;;;;;;;3.97;1.73;;;24.90;99.90;;;;;;4959064;28;20041;-74
2022/07/31 11:57:04;;;;;;;4.90;1.92;;;25.00;99.90;;;;;;4975869;28;20063;-73
2022/07/31 11:59:36;;;;;;;4.85;1.92;;;24.90;99.90;;;;;;4976988;28;20039;-74
2022/07/31 12:02:09;;;;;;;8.32;1.63;;;24.80;99.90;;;;;;4958852;28;20047;-71
2022/07/31 12:04:36;;;;;;;3.45;1.80;;;24.70;99.90;;;;;;4977881;28;20391;-73
2022/07/31 12:07:08;;;;;;;3.65;1.45;;;24.70;99.90;;;;;;4959901;28;20023;-75
2022/07/31 12:09:35;;;;;;;2.63;1.45;;;24.60;99.90;;;;;;4974884;28;20063;-73
2022/07/31 12:12:04;;;;;;;3.65;1.90;;;24.60;99.90;;;;;;4975338;28;20019;-74
2022/07/31 12:14:37;;;;;;;2.97;1.48;;;24.50;99.90;;;;;;4958484;28;20023;-72
2022/07/31 12:17:05;;;;;;;6.25;2.33;;;24.50;99.90;;;;;;4976230;28;20019;-74
2022/07/31 12:19:33;;;;;;;5.93;2.45;;;24.40;99.90;;;;;;4976332;28;20023;-72
2022/07/31 12:21:59;;;;;;;3.03;1.38;;;24.40;99.90;;;;;;4976187;28;20113;-74
2022/07/31 12:24:26;;;;;;;2.70;1.73;;;24.30;99.90;;;;;;4975178;28;20035;-73
2022/07/31 12:26:54;;;;;;;3.47;1.67;;;24.30;99.90;;;;;;4958239;28;20027;-71
2022/07/31 12:29:36;;;;;;;3.30;1.55;;;24.30;99.90;;;;;;4975900;28;20047;-73
2022/07/31 12:32:03;;;;;;;4.57;1.65;;;24.20;99.90;;;;;;4976149;28;20037;-74
2022/07/31 12:34:32;;;;;;;3.08;1.70;;;24.20;99.90;;;;;;4975520;28;20070;-75
2022/07/31 12:37:15;;;;;;;2.72;1.48;;;24.10;99.90;;;;;;4975689;28;20031;-75
2022/07/31 12:39:54;;;;;;;8.73;2.05;;;24.10;99.90;;;;;;4975220;28;20023;-76
2022/07/31 12:42:26;;;;;;;3.08;1.70;;;23.90;99.90;;;;;;4975892;28;20656;-74
2022/07/31 12:44:54;;;;;;;2.63;1.70;;;23.70;99.90;;;;;;4974578;28;20039;-75
2022/07/31 12:47:25;;;;;;;2.38;1.83;;;23.60;99.90;;;;;;4975682;28;20075;-73
2022/07/31 12:49:51;;;;;;;3.15;2.33;;;23.50;99.90;;;;;;4975488;28;20035;-74
2022/07/31 12:52:17;;;;;;;7.07;2.67;;;23.40;99.90;;;;;;4975139;28;20019;-74
2022/07/31 12:54:43;;;;;;;4.75;2.20;;;23.30;99.90;;;;;;4974301;28;20466;-75